Time;durP1;ratioP1;P1;durP2;ratioP2;P2;SDS_P1;SDS_P2;PMS_P1;PMS_P2;Temp;Humidity;BMP_temperature;BMP_pressure;BME280_temperature;BME280_humidity;BME280_pressure;Samples;Min_cycle;Max_cycle;Signal;HPM_P1;HPM_P2
2022/01/30 00:01:59;;;;;;;3.10;1.40;;;16.70;83.90;;;;;;5140900;27;20570;-22
2022/01/30 00:04:25;;;;;;;2.83;1.50;;;16.70;83.80;;;;;;5139920;27;20163;-21
2022/01/30 00:06:51;;;;;;;3.20;1.57;;;16.70;83.60;;;;;;5139760;27;20182;-22
2022/01/30 00:09:20;;;;;;;2.83;1.40;;;16.70;83.70;;;;;;5140109;27;20487;-21
2022/01/30 00:11:51;;;;;;;3.43;1.80;;;16.70;83.70;;;;;;5139963;27;20164;-21
2022/01/30 00:14:19;;;;;;;3.97;1.33;;;16.70;83.70;;;;;;5139308;27;20173;-20
2022/01/30 00:16:44;;;;;;;4.03;1.10;;;16.70;83.80;;;;;;5139980;27;20601;-19
2022/01/30 00:19:26;;;;;;;3.37;1.70;;;16.70;83.90;;;;;;5139852;27;20269;-21
2022/01/30 00:22:02;;;;;;;4.10;1.60;;;16.60;83.90;;;;;;5139675;27;20168;-20
2022/01/30 00:24:43;;;;;;;2.37;1.47;;;16.60;83.90;;;;;;5139845;27;20257;-22
2022/01/30 00:27:16;;;;;;;5.43;1.77;;;16.60;84.00;;;;;;5140126;27;20195;-23
2022/01/30 00:29:42;;;;;;;3.47;1.70;;;16.60;84.10;;;;;;5139948;27;20216;-20
2022/01/30 00:32:08;;;;;;;2.80;1.40;;;16.60;84.20;;;;;;5139992;27;20163;-23
2022/01/30 00:34:34;;;;;;;3.50;1.70;;;16.60;84.20;;;;;;5140416;27;20170;-23
2022/01/30 00:37:02;;;;;;;2.43;1.20;;;16.60;84.30;;;;;;5140404;27;20181;-23
2022/01/30 00:39:28;;;;;;;3.73;1.63;;;16.60;84.30;;;;;;5139987;27;20155;-18
2022/01/30 00:41:53;;;;;;;4.37;1.50;;;16.60;84.40;;;;;;5139063;27;20170;-21
2022/01/30 00:44:21;;;;;;;3.10;1.20;;;16.60;84.40;;;;;;5139490;27;20236;-23
2022/01/30 00:46:48;;;;;;;2.60;1.50;;;16.60;84.50;;;;;;5138761;27;20233;-21
2022/01/30 00:49:13;;;;;;;4.53;1.50;;;16.60;84.40;;;;;;5139705;27;20321;-24
2022/01/30 00:51:39;;;;;;;2.27;1.30;;;16.50;84.30;;;;;;5139567;27;20262;-21
2022/01/30 00:54:05;;;;;;;3.13;1.40;;;16.50;84.50;;;;;;5139106;27;20180;-22
2022/01/30 00:56:31;;;;;;;2.23;1.30;;;16.50;84.40;;;;;;5140120;27;20188;-22
2022/01/30 00:58:57;;;;;;;3.97;1.60;;;16.50;84.60;;;;;;5138267;27;20178;-22
2022/01/30 01:01:23;;;;;;;3.10;1.40;;;16.50;84.60;;;;;;5138661;27;20646;-22
2022/01/30 01:03:49;;;;;;;3.10;1.60;;;16.50;84.70;;;;;;5139147;27;20169;-21
2022/01/30 01:06:15;;;;;;;3.87;1.20;;;16.50;84.70;;;;;;5139252;27;20157;-23
2022/01/30 01:08:50;;;;;;;2.77;1.50;;;16.50;85.30;;;;;;5138307;27;20271;-20
2022/01/30 01:24:08;;;;;;;3.47;1.70;;;16.50;84.80;;;;;;5139270;27;20159;-21
2022/01/30 01:26:36;;;;;;;4.30;1.40;;;16.40;84.90;;;;;;5138634;27;20178;-25
2022/01/30 01:29:03;;;;;;;4.13;1.43;;;16.40;84.80;;;;;;5138642;27;20194;-21
2022/01/30 01:31:29;;;;;;;3.57;1.80;;;16.50;85.00;;;;;;5138677;27;20167;-22
2022/01/30 01:36:39;;;;;;;3.23;1.57;;;16.50;84.70;;;;;;5138464;27;20184;-21
2022/01/30 01:39:08;;;;;;;4.70;1.90;;;16.50;84.50;;;;;;5137894;27;20470;-21
2022/01/30 01:41:36;;;;;;;2.60;1.10;;;16.50;84.30;;;;;;5138378;27;20203;-19
2022/01/30 01:44:02;;;;;;;3.10;1.87;;;16.60;84.10;;;;;;5138130;27;20174;-20
2022/01/30 01:46:33;;;;;;;4.27;1.47;;;16.60;83.70;;;;;;5138776;27;20181;-22
2022/01/30 01:48:59;;;;;;;3.00;1.37;;;16.60;83.40;;;;;;5136553;27;20542;-22
2022/01/30 01:51:30;;;;;;;2.27;1.37;;;16.70;83.20;;;;;;5138402;27;20191;-21
2022/01/30 01:53:57;;;;;;;3.90;1.40;;;16.70;82.60;;;;;;5138636;27;20163;-22
2022/01/30 01:56:24;;;;;;;2.90;1.60;;;16.80;82.10;;;;;;5137852;27;20189;-21
2022/01/30 01:58:55;;;;;;;3.10;1.30;;;16.80;81.70;;;;;;5138348;27;20546;-22
2022/01/30 02:01:23;;;;;;;3.13;1.20;;;16.80;81.40;;;;;;5138212;27;20178;-22
2022/01/30 02:03:49;;;;;;;2.93;1.53;;;16.80;81.10;;;;;;5137462;27;20232;-24
2022/01/30 02:06:19;;;;;;;3.40;1.80;;;16.80;81.00;;;;;;5137009;27;20293;-21
2022/01/30 02:08:52;;;;;;;3.70;1.37;;;16.80;80.70;;;;;;5137971;27;20637;-22
2022/01/30 02:11:42;;;;;;;3.40;1.67;;;16.90;80.60;;;;;;5137397;27;20169;-20
2022/01/30 02:27:43;;;;;;;4.50;1.70;;;16.80;80.30;;;;;;5138213;27;20585;-21
2022/01/30 02:30:14;;;;;;;2.80;1.37;;;16.80;80.20;;;;;;5137627;28;20186;-23
2022/01/30 02:32:40;;;;;;;2.20;1.40;;;16.80;80.20;;;;;;5138237;27;20150;-22
2022/01/30 02:35:06;;;;;;;2.93;1.37;;;16.80;80.10;;;;;;5137035;27;20184;-22
2022/01/30 02:37:32;;;;;;;3.97;1.57;;;16.80;80.10;;;;;;5138214;27;20171;-24
2022/01/30 02:39:58;;;;;;;2.53;1.57;;;16.80;80.00;;;;;;5138047;27;20585;-20
2022/01/30 02:42:28;;;;;;;2.90;1.37;;;16.80;80.00;;;;;;5137938;28;20593;-22
2022/01/30 02:44:58;;;;;;;3.67;1.50;;;16.80;80.20;;;;;;5137422;27;20187;-19
2022/01/30 02:50:21;;;;;;;3.03;1.60;;;16.70;80.20;;;;;;5138672;27;20168;-24
2022/01/30 02:52:56;;;;;;;2.73;1.50;;;16.80;80.30;;;;;;5137372;28;20191;-22
2022/01/30 02:55:23;;;;;;;3.00;1.27;;;16.70;80.40;;;;;;5138514;27;20174;-23
2022/01/30 02:57:49;;;;;;;4.07;1.77;;;16.70;80.40;;;;;;5137123;27;20186;-21
2022/01/30 03:00:15;;;;;;;3.67;1.30;;;16.70;80.50;;;;;;5137873;27;20174;-19
2022/01/30 03:02:42;;;;;;;4.57;1.70;;;16.70;80.60;;;;;;5141081;27;20166;-22
2022/01/30 03:05:08;;;;;;;3.07;1.50;;;16.70;80.60;;;;;;5141817;27;20210;-23
2022/01/30 03:07:33;;;;;;;2.80;1.23;;;16.70;80.70;;;;;;5141240;27;20242;-22
2022/01/30 03:09:59;;;;;;;3.00;1.70;;;16.70;80.70;;;;;;5141617;27;20516;-22
2022/01/30 03:12:32;;;;;;;3.47;1.60;;;16.60;80.70;;;;;;5140627;27;20560;-23
2022/01/30 03:14:57;;;;;;;4.47;1.53;;;16.60;80.60;;;;;;5141531;27;20195;-22
2022/01/30 03:17:23;;;;;;;3.17;1.50;;;16.60;80.60;;;;;;5141406;27;20189;-22
2022/01/30 03:19:49;;;;;;;4.13;1.40;;;16.60;80.50;;;;;;5141125;27;20180;-20
2022/01/30 03:22:16;;;;;;;3.87;1.50;;;16.60;80.50;;;;;;5141844;27;20445;-22
2022/01/30 03:24:42;;;;;;;3.57;2.00;;;16.60;80.40;;;;;;5141811;27;20260;-24
2022/01/30 03:27:10;;;;;;;3.43;1.50;;;16.70;80.30;;;;;;5141147;27;20301;-22
2022/01/30 03:29:38;;;;;;;3.97;1.80;;;16.70;80.20;;;;;;5140713;27;20182;-21
2022/01/30 03:32:05;;;;;;;4.50;1.80;;;16.60;80.10;;;;;;5141128;27;20178;-22
2022/01/30 03:34:30;;;;;;;2.93;1.57;;;16.70;80.00;;;;;;5140508;27;20261;-22
2022/01/30 03:36:56;;;;;;;4.70;1.50;;;16.60;79.90;;;;;;5139869;27;20204;-22
2022/01/30 03:39:22;;;;;;;3.30;1.70;;;16.70;79.90;;;;;;5140590;27;20222;-20
2022/01/30 03:41:53;;;;;;;2.43;1.50;;;16.60;79.90;;;;;;5140297;27;20171;-23
2022/01/30 03:44:19;;;;;;;4.33;1.70;;;16.60;79.70;;;;;;5141158;27;20585;-22
2022/01/30 03:46:45;;;;;;;3.67;1.60;;;16.60;79.70;;;;;;5140186;27;20555;-20
2022/01/30 03:49:10;;;;;;;4.10;1.43;;;16.60;79.60;;;;;;5139847;27;20220;-22
2022/01/30 03:51:38;;;;;;;4.57;1.53;;;16.70;79.50;;;;;;5140989;27;20167;-23
2022/01/30 03:54:03;;;;;;;4.13;1.70;;;16.70;79.30;;;;;;5141296;27;20163;-22
2022/01/30 03:56:29;;;;;;;2.87;1.30;;;16.60;79.30;;;;;;5141179;27;20179;-22
2022/01/30 03:58:55;;;;;;;2.37;1.47;;;16.60;79.30;;;;;;5139984;27;20177;-23
2022/01/30 04:01:21;;;;;;;3.77;1.67;;;16.60;79.20;;;;;;5140789;27;20186;-22
2022/01/30 04:03:47;;;;;;;3.70;1.67;;;16.60;79.20;;;;;;5139957;27;20700;-21
2022/01/30 04:06:12;;;;;;;3.37;1.80;;;16.60;79.30;;;;;;5140192;27;20171;-22
2022/01/30 04:08:39;;;;;;;3.37;1.47;;;16.60;79.20;;;;;;5140427;27;20196;-20
2022/01/30 04:11:07;;;;;;;3.80;1.57;;;16.60;79.20;;;;;;5140391;27;20166;-20
2022/01/30 04:13:32;;;;;;;3.87;1.53;;;16.60;79.20;;;;;;5139764;27;20177;-23
2022/01/30 04:15:58;;;;;;;3.03;1.50;;;16.60;79.20;;;;;;5140049;27;20269;-21
2022/01/30 04:18:24;;;;;;;3.87;1.67;;;16.50;79.20;;;;;;5140496;27;20167;-23
2022/01/30 04:20:51;;;;;;;4.00;1.83;;;16.50;79.40;;;;;;5140193;27;20160;-23
2022/01/30 04:23:17;;;;;;;2.33;1.43;;;16.50;79.40;;;;;;5139961;27;20184;-21
2022/01/30 04:25:43;;;;;;;3.03;1.20;;;16.50;79.50;;;;;;5139816;27;20316;-22
2022/01/30 04:28:09;;;;;;;5.00;1.90;;;16.50;79.50;;;;;;5140219;27;20570;-20
2022/01/30 04:30:35;;;;;;;4.07;1.70;;;16.40;79.50;;;;;;5139151;27;20174;-23
2022/01/30 04:33:01;;;;;;;3.93;1.90;;;16.50;79.60;;;;;;5139804;27;20167;-24
2022/01/30 04:35:30;;;;;;;4.00;1.50;;;16.50;79.70;;;;;;5139786;27;20199;-24
2022/01/30 04:57:17;;;;;;;2.77;1.50;;;16.30;79.70;;;;;;5139853;27;20235;-21
2022/01/30 05:00:03;;;;;;;3.80;1.70;;;16.30;79.80;;;;;;5139717;27;20161;-22
2022/01/30 05:07:44;;;;;;;3.37;1.53;;;16.30;80.00;;;;;;5139300;27;20198;-22
2022/01/30 05:10:10;;;;;;;4.37;1.90;;;16.30;80.10;;;;;;5139381;27;20162;-22
2022/01/30 05:12:52;;;;;;;4.17;1.80;;;16.20;80.20;;;;;;5139033;27;20174;-22
2022/01/30 05:15:20;;;;;;;3.93;1.97;;;16.20;80.40;;;;;;5139267;27;20227;-25
2022/01/30 05:17:46;;;;;;;4.07;1.73;;;16.20;80.50;;;;;;5138459;27;20170;-20
2022/01/30 05:20:12;;;;;;;3.57;1.83;;;16.10;80.60;;;;;;5139036;27;20186;-23
2022/01/30 05:22:39;;;;;;;3.00;1.70;;;16.10;80.70;;;;;;5139304;27;20294;-22
2022/01/30 05:25:06;;;;;;;3.43;1.43;;;16.10;80.80;;;;;;5138166;27;20234;-22
2022/01/30 05:27:31;;;;;;;3.63;1.50;;;16.00;81.00;;;;;;5138555;27;20211;-23
2022/01/30 05:29:57;;;;;;;3.83;1.67;;;16.00;81.10;;;;;;5138819;27;20180;-22
2022/01/30 05:32:23;;;;;;;4.73;2.07;;;16.00;81.30;;;;;;5138986;27;20254;-21
2022/01/30 05:34:50;;;;;;;3.70;1.60;;;16.00;81.40;;;;;;5138837;27;20260;-22
2022/01/30 05:37:18;;;;;;;3.27;1.60;;;15.90;81.30;;;;;;5121708;27;20177;-23
2022/01/30 05:39:44;;;;;;;1.97;1.30;;;16.00;81.40;;;;;;5137892;27;20174;-22
2022/01/30 05:42:11;;;;;;;2.93;1.40;;;17.10;72.90;;;;;;5138968;27;20268;-21
2022/01/30 05:47:37;;;;;;;3.23;1.50;;;19.70;57.30;;;;;;5121983;27;20455;-22
2022/01/30 05:50:03;;;;;;;3.53;1.53;;;20.50;54.50;;;;;;5138683;27;20163;-22
2022/01/30 05:52:31;;;;;;;3.50;1.67;;;20.80;53.30;;;;;;5138638;27;20169;-22
2022/01/30 05:54:56;;;;;;;4.43;1.40;;;20.80;52.90;;;;;;5137749;27;20268;-21
2022/01/30 05:57:22;;;;;;;2.67;1.50;;;21.00;52.50;;;;;;5138408;27;20261;-20
2022/01/30 05:59:48;;;;;;;5.50;1.70;;;21.20;52.10;;;;;;5137782;27;20177;-22
2022/01/30 06:02:15;;;;;;;3.03;1.50;;;21.30;51.80;;;;;;5137397;27;20653;-19
2022/01/30 06:04:40;;;;;;;3.67;1.67;;;21.30;51.50;;;;;;5137416;27;20297;-23
2022/01/30 06:07:08;;;;;;;4.00;1.60;;;21.20;51.50;;;;;;5137719;27;20250;-23
2022/01/30 06:09:34;;;;;;;3.07;1.43;;;20.90;51.70;;;;;;5138750;27;20257;-25
2022/01/30 06:12:00;;;;;;;3.97;1.50;;;20.80;51.90;;;;;;5137943;28;20197;-25
2022/01/30 06:14:26;;;;;;;3.53;1.83;;;20.40;52.40;;;;;;5138652;27;20165;-22
2022/01/30 06:16:53;;;;;;;5.00;1.40;;;20.20;53.10;;;;;;5138640;27;20177;-20
2022/01/30 06:19:22;;;;;;;2.53;1.40;;;19.90;53.60;;;;;;5137823;27;20164;-23
2022/01/30 06:21:49;;;;;;;3.53;1.57;;;19.70;54.30;;;;;;5138311;27;20165;-23
2022/01/30 06:24:15;;;;;;;3.30;1.60;;;19.40;55.00;;;;;;5138511;27;20742;-19
2022/01/30 06:26:40;;;;;;;3.93;1.70;;;19.10;55.90;;;;;;5138376;27;20199;-22
2022/01/30 06:29:06;;;;;;;4.40;1.30;;;18.90;56.70;;;;;;5138345;27;20197;-23
2022/01/30 06:31:33;;;;;;;2.33;1.37;;;18.80;57.40;;;;;;5137835;27;20180;-20
2022/01/30 06:33:59;;;;;;;4.60;1.80;;;18.60;58.10;;;;;;5138113;27;20213;-21
2022/01/30 06:36:25;;;;;;;2.60;1.37;;;18.40;59.20;;;;;;5139787;27;20184;-22
2022/01/30 06:38:52;;;;;;;4.13;1.50;;;18.20;59.70;;;;;;5142710;27;20260;-21
2022/01/30 06:41:21;;;;;;;2.93;1.53;;;18.00;60.60;;;;;;5142242;27;20184;-22
2022/01/30 06:43:47;;;;;;;2.23;1.40;;;17.90;61.70;;;;;;5142725;27;20199;-23
2022/01/30 06:46:15;;;;;;;3.30;1.73;;;17.70;62.70;;;;;;5141444;27;20173;-22
2022/01/30 06:48:41;;;;;;;3.03;1.70;;;17.60;63.80;;;;;;5141972;27;20189;-22
2022/01/30 06:51:08;;;;;;;4.13;1.50;;;17.50;65.00;;;;;;5142610;27;20173;-22
2022/01/30 06:53:34;;;;;;;3.30;1.50;;;17.40;66.00;;;;;;5141147;27;20183;-23
2022/01/30 06:56:00;;;;;;;2.33;1.40;;;17.30;66.70;;;;;;5141008;27;20184;-24
2022/01/30 06:58:25;;;;;;;4.17;1.90;;;17.20;67.50;;;;;;5142036;27;20190;-21
2022/01/30 07:01:01;;;;;;;4.13;1.70;;;17.10;68.20;;;;;;5140749;27;20184;-21
2022/01/30 07:03:26;;;;;;;4.10;1.60;;;17.00;69.00;;;;;;5141798;27;20188;-24
2022/01/30 07:05:52;;;;;;;2.87;1.50;;;17.00;69.60;;;;;;5140842;27;20227;-24
2022/01/30 07:08:18;;;;;;;3.93;1.53;;;16.90;70.00;;;;;;5140407;27;20643;-23
2022/01/30 07:10:45;;;;;;;2.63;1.40;;;16.80;70.60;;;;;;5141498;27;20196;-22
2022/01/30 07:13:12;;;;;;;3.20;1.50;;;16.80;71.30;;;;;;5140347;27;20168;-24
2022/01/30 07:15:40;;;;;;;3.27;1.33;;;16.70;71.80;;;;;;5141721;27;20226;-24
2022/01/30 07:18:05;;;;;;;3.43;1.60;;;16.60;72.30;;;;;;5140436;27;20184;-20
2022/01/30 07:20:32;;;;;;;3.33;1.50;;;16.60;72.70;;;;;;5140994;27;20180;-21
2022/01/30 07:22:57;;;;;;;2.63;1.23;;;16.60;73.10;;;;;;5140883;27;20169;-21
2022/01/30 07:25:23;;;;;;;4.37;1.93;;;16.50;73.20;;;;;;5140412;27;20178;-21
2022/01/30 07:27:49;;;;;;;2.90;1.70;;;16.60;72.60;;;;;;5141083;27;20198;-21
2022/01/30 07:30:16;;;;;;;3.57;1.20;;;16.90;70.60;;;;;;5141388;27;20168;-23
2022/01/30 07:32:41;;;;;;;3.23;1.73;;;17.30;67.80;;;;;;5140188;27;20252;-22
2022/01/30 07:35:08;;;;;;;3.80;1.43;;;17.60;64.60;;;;;;5140250;27;20195;-21
2022/01/30 07:37:35;;;;;;;2.87;1.30;;;18.00;61.60;;;;;;5139774;27;20561;-21
2022/01/30 07:40:03;;;;;;;3.33;1.43;;;18.40;59.50;;;;;;5140928;27;20179;-21
2022/01/30 07:42:29;;;;;;;3.47;1.53;;;18.60;58.40;;;;;;5140187;27;20176;-23
2022/01/30 07:44:55;;;;;;;3.87;1.63;;;18.90;57.30;;;;;;5140762;27;20182;-21
2022/01/30 07:47:22;;;;;;;4.17;1.50;;;19.20;56.20;;;;;;5139981;27;20291;-20
2022/01/30 07:49:53;;;;;;;3.23;1.57;;;19.30;55.60;;;;;;5140831;27;20230;-23
2022/01/30 07:52:20;;;;;;;3.47;1.53;;;19.40;55.40;;;;;;5139496;27;20171;-23
2022/01/30 07:54:46;;;;;;;4.30;1.87;;;19.30;55.50;;;;;;5140436;27;20454;-20
2022/01/30 07:57:12;;;;;;;3.43;1.63;;;19.10;55.70;;;;;;5140707;27;20436;-22
2022/01/30 07:59:38;;;;;;;2.83;1.20;;;19.00;56.00;;;;;;5139912;27;20184;-22
2022/01/30 08:02:04;;;;;;;3.33;1.40;;;18.80;56.50;;;;;;5140455;27;20214;-23
2022/01/30 08:04:30;;;;;;;3.90;1.90;;;18.60;57.20;;;;;;5140396;27;20193;-23
2022/01/30 08:06:55;;;;;;;4.17;1.50;;;18.40;57.90;;;;;;5139281;27;20227;-24
2022/01/30 08:09:21;;;;;;;2.90;1.40;;;18.20;58.60;;;;;;5139713;27;20189;-27
2022/01/30 08:11:47;;;;;;;4.07;1.60;;;17.90;59.30;;;;;;5140386;27;20202;-21
2022/01/30 08:14:13;;;;;;;3.93;1.63;;;17.80;60.00;;;;;;5140419;27;20207;-23
2022/01/30 08:16:39;;;;;;;2.47;1.27;;;17.70;61.00;;;;;;5139694;27;20277;-22
2022/01/30 08:19:05;;;;;;;2.87;1.60;;;17.60;61.90;;;;;;5139915;27;20181;-19
2022/01/30 08:21:31;;;;;;;3.37;1.40;;;17.50;62.70;;;;;;5139968;27;20616;-21
2022/01/30 08:23:57;;;;;;;3.13;1.30;;;17.40;63.30;;;;;;5139210;27;20172;-22
2022/01/30 08:26:22;;;;;;;2.37;1.40;;;17.30;63.80;;;;;;5138466;27;20169;-20
2022/01/30 08:28:49;;;;;;;4.53;1.37;;;17.30;64.20;;;;;;5138478;27;20230;-20
2022/01/30 08:31:14;;;;;;;2.47;1.30;;;17.20;64.50;;;;;;5138990;27;20217;-24
2022/01/30 08:33:40;;;;;;;3.20;1.63;;;17.10;65.20;;;;;;5138962;27;20169;-21
2022/01/30 08:36:06;;;;;;;3.60;1.50;;;17.10;65.60;;;;;;5139092;27;20174;-22
2022/01/30 08:38:33;;;;;;;4.40;1.70;;;17.10;65.60;;;;;;5139140;27;20169;-21
2022/01/30 08:40:59;;;;;;;3.20;1.53;;;17.20;65.10;;;;;;5139288;27;20154;-22
2022/01/30 08:43:24;;;;;;;4.33;1.87;;;17.30;64.50;;;;;;5139082;27;20164;-23
2022/01/30 08:45:52;;;;;;;3.83;1.70;;;17.40;63.70;;;;;;5138773;27;20172;-23
2022/01/30 08:48:24;;;;;;;3.30;1.33;;;17.40;63.10;;;;;;5138194;27;20203;-20
2022/01/30 08:50:50;;;;;;;4.90;1.67;;;17.50;63.00;;;;;;5139013;27;20191;-22
2022/01/30 08:53:16;;;;;;;3.63;1.67;;;17.60;62.80;;;;;;5138868;27;20506;-22
2022/01/30 08:55:44;;;;;;;4.03;1.40;;;17.70;62.80;;;;;;5137987;27;20177;-22
2022/01/30 08:58:10;;;;;;;4.47;1.80;;;17.70;63.30;;;;;;5138295;27;20184;-22
2022/01/30 09:00:37;;;;;;;4.20;1.40;;;18.00;63.00;;;;;;5138571;27;20165;-23
2022/01/30 09:03:04;;;;;;;4.17;1.67;;;18.70;59.60;;;;;;5138757;27;20192;-22
2022/01/30 09:05:32;;;;;;;3.30;1.50;;;19.20;57.70;;;;;;5138411;27;20528;-23
2022/01/30 09:07:59;;;;;;;5.17;1.70;;;19.30;57.00;;;;;;5137837;27;20300;-19
2022/01/30 09:10:25;;;;;;;8.47;1.77;;;19.70;56.10;;;;;;5138075;27;20166;-23
2022/01/30 09:12:51;;;;;;;6.03;2.00;;;20.00;55.10;;;;;;5137464;27;20173;-23
2022/01/30 09:15:18;;;;;;;7.20;1.83;;;20.30;54.10;;;;;;5136759;27;20173;-23
2022/01/30 09:17:44;;;;;;;5.90;2.10;;;20.20;54.00;;;;;;5120382;27;20182;-22
2022/01/30 09:20:11;;;;;;;5.60;1.60;;;20.10;54.20;;;;;;5138498;27;20171;-23
2022/01/30 09:22:37;;;;;;;5.87;1.93;;;20.00;54.40;;;;;;5137839;27;20591;-22
2022/01/30 09:25:05;;;;;;;6.30;1.67;;;20.00;54.80;;;;;;5137751;27;20613;-21
2022/01/30 09:27:32;;;;;;;6.10;2.00;;;19.70;55.60;;;;;;5137884;27;20199;-24
2022/01/30 09:29:58;;;;;;;9.47;2.00;;;19.60;56.10;;;;;;5137986;27;20232;-21
2022/01/30 09:32:24;;;;;;;7.83;2.10;;;19.30;56.80;;;;;;5137239;27;20165;-22
2022/01/30 09:34:52;;;;;;;11.70;2.70;;;19.20;57.50;;;;;;5138452;27;20741;-22
2022/01/30 09:37:17;;;;;;;10.00;2.60;;;18.90;58.10;;;;;;5136888;27;20257;-24
2022/01/30 09:39:44;;;;;;;7.90;2.87;;;18.70;58.70;;;;;;5137467;27;20657;-23
2022/01/30 09:42:10;;;;;;;7.93;2.53;;;18.40;59.30;;;;;;5137858;27;20170;-22
2022/01/30 09:44:39;;;;;;;11.13;2.97;;;18.20;59.90;;;;;;5137700;27;20500;-22
2022/01/30 09:47:10;;;;;;;7.60;2.97;;;18.10;60.70;;;;;;5120228;27;20266;-22
2022/01/30 09:49:38;;;;;;;12.00;3.33;;;18.00;61.20;;;;;;5137762;27;20739;-24
2022/01/30 09:52:04;;;;;;;9.67;3.10;;;17.90;61.40;;;;;;5137762;27;20166;-22
2022/01/30 09:54:30;;;;;;;11.33;3.20;;;17.90;61.50;;;;;;5137470;27;20261;-23
2022/01/30 09:56:56;;;;;;;14.67;3.03;;;17.90;61.20;;;;;;5121791;27;20271;-24
2022/01/30 09:59:21;;;;;;;11.20;3.30;;;17.90;61.00;;;;;;5117193;28;20174;-22
2022/01/30 10:01:47;;;;;;;11.17;3.37;;;17.90;60.90;;;;;;5116514;28;20269;-22
2022/01/30 10:04:13;;;;;;;9.80;3.30;;;17.90;60.70;;;;;;5117152;28;20258;-21
2022/01/30 10:06:55;;;;;;;12.40;3.10;;;17.80;60.70;;;;;;5116676;28;20174;-22
2022/01/30 10:09:32;;;;;;;8.07;3.10;;;17.80;60.90;;;;;;5116818;28;20189;-22
2022/01/30 10:15:06;;;;;;;11.30;3.13;;;17.60;61.00;;;;;;5116843;28;20176;-24
2022/01/30 10:17:48;;;;;;;11.00;3.53;;;17.60;61.30;;;;;;5116585;28;20255;-22
2022/01/30 10:20:23;;;;;;;11.00;3.27;;;17.60;59.90;;;;;;5121624;27;20222;-24
2022/01/30 10:23:01;;;;;;;12.63;4.20;;;17.60;59.70;;;;;;5137274;27;20238;-22
2022/01/30 10:25:31;;;;;;;13.20;3.40;;;17.60;59.70;;;;;;5137172;27;20187;-23
2022/01/30 10:28:07;;;;;;;13.93;3.60;;;17.60;59.50;;;;;;5136693;28;20564;-21
2022/01/30 10:30:47;;;;;;;8.87;3.27;;;17.60;59.50;;;;;;5119751;28;20169;-24
2022/01/30 10:33:16;;;;;;;15.37;3.80;;;17.60;59.70;;;;;;5137618;27;20180;-22
2022/01/30 10:35:57;;;;;;;10.03;3.50;;;17.60;59.90;;;;;;5137445;27;20233;-22
2022/01/30 10:38:30;;;;;;;13.60;3.77;;;17.60;59.90;;;;;;5137182;27;20149;-24
2022/01/30 10:41:11;;;;;;;10.70;3.90;;;17.60;60.00;;;;;;5136733;28;20181;-22
2022/01/30 10:44:07;;;;;;;10.97;3.27;;;17.50;60.00;;;;;;5136965;27;20163;-22
2022/01/30 10:46:43;;;;;;;9.63;3.40;;;17.50;59.90;;;;;;5136710;27;20169;-22
2022/01/30 10:49:11;;;;;;;13.60;4.07;;;17.50;60.00;;;;;;5137108;27;20238;-22
2022/01/30 10:51:37;;;;;;;10.10;3.73;;;17.60;59.60;;;;;;5135970;28;20691;-23
2022/01/30 10:54:13;;;;;;;11.33;3.57;;;17.90;58.60;;;;;;5137206;27;20194;-23
2022/01/30 10:56:40;;;;;;;13.53;3.73;;;18.40;57.40;;;;;;5135870;27;20198;-23
2022/01/30 10:59:16;;;;;;;12.37;3.70;;;18.70;56.10;;;;;;5136931;27;20182;-24
2022/01/30 11:01:44;;;;;;;16.03;3.93;;;19.00;55.00;;;;;;5136273;27;20196;-23
2022/01/30 11:04:27;;;;;;;13.33;3.87;;;19.30;54.20;;;;;;5136421;27;20547;-22
2022/01/30 11:06:56;;;;;;;14.47;3.67;;;19.50;53.40;;;;;;5136667;27;20251;-22
2022/01/30 11:09:28;;;;;;;13.37;3.73;;;19.60;53.00;;;;;;5135423;27;20201;-22
2022/01/30 11:12:03;;;;;;;15.60;3.83;;;19.70;52.70;;;;;;5136884;27;20175;-21
2022/01/30 11:15:15;;;;;;;15.80;4.30;;;19.70;52.50;;;;;;5137163;27;20180;-19
2022/01/30 11:17:23;;;;;;;16.17;4.10;;;19.70;52.30;;;;;;5136153;28;20237;-22
2022/01/30 11:19:52;;;;;;;12.60;4.30;;;19.50;52.40;;;;;;5136198;27;20174;-21
2022/01/30 11:22:22;;;;;;;16.33;4.30;;;19.30;52.60;;;;;;5135592;27;20176;-23
2022/01/30 11:25:12;;;;;;;13.50;4.00;;;19.10;52.90;;;;;;5134827;27;20184;-22
2022/01/30 11:27:41;;;;;;;13.53;3.90;;;18.90;53.30;;;;;;5138658;27;20259;-20
2022/01/30 11:30:08;;;;;;;15.60;4.13;;;18.60;54.00;;;;;;5139459;27;20211;-23
2022/01/30 11:32:34;;;;;;;11.77;3.63;;;18.50;54.60;;;;;;5138004;27;20176;-23
2022/01/30 11:35:00;;;;;;;17.70;4.30;;;18.40;55.10;;;;;;5138442;27;20180;-21
2022/01/30 11:37:28;;;;;;;21.23;4.87;;;18.20;55.60;;;;;;5139396;27;20180;-19
2022/01/30 11:39:54;;;;;;;16.60;3.90;;;18.10;56.20;;;;;;5139330;27;20188;-21
2022/01/30 11:42:23;;;;;;;11.77;3.90;;;17.90;56.80;;;;;;5138654;27;20577;-23
2022/01/30 11:45:10;;;;;;;13.50;3.63;;;17.90;57.20;;;;;;5138197;27;20181;-21
2022/01/30 11:47:51;;;;;;;15.13;3.80;;;17.80;57.50;;;;;;5139360;27;20218;-21
2022/01/30 11:50:28;;;;;;;10.20;3.80;;;17.70;57.80;;;;;;5139507;27;20474;-23
2022/01/30 11:53:00;;;;;;;18.57;4.80;;;17.60;57.90;;;;;;5138627;27;20175;-23
2022/01/30 11:55:50;;;;;;;14.17;4.07;;;17.60;58.10;;;;;;5138554;27;20262;-19
2022/01/30 11:58:54;;;;;;;13.43;4.30;;;17.60;58.30;;;;;;5139527;27;20250;-23
2022/01/30 12:01:26;;;;;;;15.07;3.70;;;17.50;58.10;;;;;;5123595;27;20231;-24
2022/01/30 12:03:56;;;;;;;10.03;3.83;;;17.40;58.40;;;;;;5139332;27;20205;-22
2022/01/30 12:06:25;;;;;;;13.77;3.83;;;17.40;58.70;;;;;;5139412;27;20254;-23
2022/01/30 12:08:52;;;;;;;13.47;3.77;;;17.40;58.90;;;;;;5138953;27;20201;-21
2022/01/30 12:11:36;;;;;;;13.50;4.40;;;17.40;59.10;;;;;;5139107;27;20165;-24
2022/01/30 12:14:05;;;;;;;11.47;3.63;;;17.40;59.40;;;;;;5138408;27;20655;-20
2022/01/30 12:16:52;;;;;;;13.07;4.20;;;17.40;59.80;;;;;;5139552;27;20169;-21
2022/01/30 12:19:47;;;;;;;15.80;4.43;;;17.30;60.10;;;;;;5138866;27;20167;-20
2022/01/30 12:22:16;;;;;;;12.90;3.73;;;17.30;60.50;;;;;;5139160;27;20185;-20
2022/01/30 12:24:44;;;;;;;12.37;3.50;;;17.30;60.70;;;;;;5138365;27;20165;-26
2022/01/30 12:27:10;;;;;;;10.83;4.00;;;17.30;61.00;;;;;;5137831;27;20188;-20
2022/01/30 12:29:40;;;;;;;9.67;3.20;;;17.30;61.20;;;;;;5138112;27;20195;-22
2022/01/30 12:32:26;;;;;;;15.00;4.23;;;17.60;60.60;;;;;;5138446;27;20158;-20
2022/01/30 12:34:54;;;;;;;11.97;3.63;;;18.10;58.80;;;;;;5138207;27;20269;-22
2022/01/30 12:37:28;;;;;;;9.93;3.63;;;18.70;56.90;;;;;;5138436;27;20175;-21
2022/01/30 12:39:56;;;;;;;11.27;4.00;;;19.30;55.00;;;;;;5137303;27;20185;-21
2022/01/30 12:42:25;;;;;;;13.27;3.90;;;19.60;53.50;;;;;;5138697;27;20181;-23
2022/01/30 12:44:51;;;;;;;13.73;4.00;;;19.90;52.60;;;;;;5137850;27;20253;-22
2022/01/30 12:47:17;;;;;;;12.13;3.93;;;20.00;52.00;;;;;;5137835;27;20453;-24
2022/01/30 12:49:48;;;;;;;14.67;3.87;;;20.00;51.80;;;;;;5137550;27;20167;-22
2022/01/30 12:52:51;;;;;;;13.87;4.20;;;19.90;51.70;;;;;;5138570;27;20220;-21
2022/01/30 12:55:11;;;;;;;14.90;4.20;;;19.80;51.80;;;;;;5135508;27;20199;-25
2022/01/30 12:57:41;;;;;;;14.23;4.43;;;19.70;51.80;;;;;;5137230;27;20277;-22
2022/01/30 13:00:09;;;;;;;13.33;3.70;;;19.50;52.10;;;;;;5138287;27;20184;-24
2022/01/30 13:02:38;;;;;;;13.13;3.90;;;19.10;52.60;;;;;;5137324;27;20268;-21
2022/01/30 13:05:09;;;;;;;16.30;4.07;;;18.90;53.00;;;;;;5137610;27;20649;-23
2022/01/30 13:07:38;;;;;;;13.60;3.63;;;18.70;53.70;;;;;;5137887;27;20195;-23
2022/01/30 13:10:11;;;;;;;15.77;4.17;;;18.40;54.40;;;;;;5137634;27;20180;-22
2022/01/30 13:12:37;;;;;;;12.60;3.93;;;18.20;55.30;;;;;;5137999;27;20154;-22
2022/01/30 13:15:07;;;;;;;13.90;4.10;;;18.00;56.10;;;;;;5136992;27;20173;-24
2022/01/30 13:17:33;;;;;;;12.73;4.00;;;17.90;56.80;;;;;;5137581;27;20176;-19
2022/01/30 13:19:58;;;;;;;12.67;4.07;;;17.90;57.40;;;;;;5136973;27;20180;-19
2022/01/30 13:22:37;;;;;;;15.57;3.83;;;17.70;57.70;;;;;;5138784;27;20173;-23
2022/01/30 13:25:06;;;;;;;11.63;3.63;;;17.70;58.10;;;;;;5137710;27;20181;-23
2022/01/30 13:27:33;;;;;;;13.33;4.23;;;17.60;58.40;;;;;;5136674;27;20200;-22
2022/01/30 13:29:59;;;;;;;17.20;4.83;;;17.60;58.50;;;;;;5136516;27;20170;-23
2022/01/30 13:32:26;;;;;;;15.27;3.87;;;17.50;58.50;;;;;;5137384;27;20246;-21
2022/01/30 13:34:58;;;;;;;14.03;4.27;;;17.50;58.50;;;;;;5137089;27;20253;-22
2022/01/30 13:37:25;;;;;;;16.13;4.30;;;17.40;58.30;;;;;;5136345;27;20178;-23
2022/01/30 13:48:00;;;;;;;17.03;3.90;;;17.30;58.00;;;;;;5137743;27;20193;-23
2022/01/30 13:50:31;;;;;;;12.40;3.80;;;17.20;58.10;;;;;;5136705;27;20206;-24
2022/01/30 13:53:25;;;;;;;13.07;4.30;;;17.20;58.40;;;;;;5136572;27;20233;-23
2022/01/30 13:56:00;;;;;;;15.03;4.07;;;17.20;58.40;;;;;;5134483;27;20191;-24
2022/01/30 13:58:51;;;;;;;10.60;3.73;;;17.20;58.30;;;;;;5137646;27;20621;-24
2022/01/30 14:01:19;;;;;;;11.33;3.80;;;17.20;58.60;;;;;;5136442;27;20176;-24
2022/01/30 14:03:47;;;;;;;13.47;4.00;;;17.10;58.80;;;;;;5136544;27;20258;-23